Time;durP1;ratioP1;P1;durP2;ratioP2;P2;SDS_P1;SDS_P2;PMS_P1;PMS_P2;Temp;Humidity;BMP_temperature;BMP_pressure;BME280_temperature;BME280_humidity;BME280_pressure;Samples;Min_cycle;Max_cycle;Signal;HPM_P1;HPM_P2
2023/10/19 00:00:56;;;;;;;36.95;33.20;;;;;;;5.93;100.00;95241.88;4982258;28;20045;-76
2023/10/19 00:03:23;;;;;;;32.63;29.30;;;;;;;5.64;100.00;95227.22;4984738;28;20038;-76
2023/10/19 00:05:49;;;;;;;26.85;24.23;;;;;;;5.40;100.00;95223.38;4981533;28;20050;-76
2023/10/19 00:08:20;;;;;;;27.00;24.20;;;;;;;5.39;100.00;95214.09;4981747;28;20273;-75
2023/10/19 00:13:35;;;;;;;27.15;24.40;;;;;;;5.06;100.00;95202.38;4982738;28;20400;-76
2023/10/19 00:16:07;;;;;;;28.95;25.30;;;;;;;5.12;100.00;95207.00;4975566;28;20082;-76
2023/10/19 00:18:34;;;;;;;32.35;29.08;;;;;;;5.18;100.00;95206.47;4983076;28;20038;-76
2023/10/19 00:21:10;;;;;;;26.95;24.27;;;;;;;5.12;100.00;95205.25;4982764;28;20050;-76
2023/10/19 00:23:36;;;;;;;31.38;27.50;;;;;;;5.17;100.00;95194.59;4981662;28;20034;-76
2023/10/19 00:26:08;;;;;;;28.15;25.35;;;;;;;5.26;100.00;95204.06;4981837;28;20585;-76
2023/10/19 00:28:35;;;;;;;29.23;26.50;;;;;;;5.24;100.00;95190.53;4981430;28;20614;-76
2023/10/19 00:31:07;;;;;;;29.13;26.33;;;;;;;5.13;100.00;95196.59;4981521;28;20507;-76
2023/10/19 00:33:33;;;;;;;25.70;23.27;;;;;;;5.15;100.00;95192.16;4982943;28;20057;-76
2023/10/19 00:36:15;;;;;;;34.15;30.33;;;;;;;5.20;100.00;95181.50;4982612;28;20044;-76
2023/10/19 00:38:51;;;;;;;33.47;29.95;;;;;;;5.02;100.00;95183.06;4981984;28;20045;-76
2023/10/19 00:41:29;;;;;;;29.35;26.55;;;;;;;4.94;100.00;95182.91;4972624;28;20068;-76
2023/10/19 00:44:03;;;;;;;28.30;25.63;;;;;;;5.04;100.00;95181.19;4981454;28;20038;-76
2023/10/19 00:46:38;;;;;;;27.40;24.55;;;;;;;4.75;100.00;95174.19;4965846;28;20523;-77
2023/10/19 00:49:09;;;;;;;32.38;28.88;;;;;;;4.70;100.00;95167.84;4977065;28;20421;-76
2023/10/19 00:52:10;;;;;;;32.35;28.80;;;;;;;4.84;100.00;95169.25;4983569;28;20029;-76
2023/10/19 00:54:50;;;;;;;27.52;24.83;;;;;;;4.81;100.00;95166.94;4983807;28;20928;-77
2023/10/19 00:57:20;;;;;;;26.90;23.88;;;;;;;4.74;100.00;95170.03;4966354;28;20038;-75
2023/10/19 01:02:21;;;;;;;28.23;25.42;;;;;;;4.87;100.00;95172.34;4979333;28;20049;-76
2023/10/19 01:05:05;;;;;;;27.33;24.52;;;;;;;4.84;100.00;95167.50;4981142;28;20423;-76
2023/10/19 01:07:31;;;;;;;26.10;23.30;;;;;;;4.71;100.00;95160.03;4980602;28;20022;-76
2023/10/19 01:10:04;;;;;;;29.52;25.05;;;;;;;4.38;100.00;95162.84;4980860;28;20026;-76
2023/10/19 01:15:17;;;;;;;26.02;23.35;;;;;;;4.63;100.00;95167.53;4980956;28;20391;-76
2023/10/19 01:17:45;;;;;;;28.67;25.45;;;;;;;4.61;100.00;95160.94;4981232;28;20472;-75
2023/10/19 01:28:48;;;;;;;26.05;23.27;;;;;;;4.61;100.00;95151.47;4980959;28;20026;-76
2023/10/19 01:33:55;;;;;;;28.20;23.58;;;;;;;4.17;100.00;95162.88;4969139;28;20027;-77
2023/10/19 01:36:26;;;;;;;23.60;21.27;;;;;;;4.29;100.00;95155.13;4981464;28;20038;-75
2023/10/19 01:38:54;;;;;;;25.77;23.27;;;;;;;4.34;100.00;95158.09;4964156;28;20045;-76
2023/10/19 01:41:20;;;;;;;27.85;23.77;;;;;;;4.34;100.00;95158.91;4981290;28;20038;-76
2023/10/19 01:43:48;;;;;;;26.30;22.67;;;;;;;4.32;100.00;95160.81;4980190;28;20049;-76
2023/10/19 01:46:21;;;;;;;24.95;22.63;;;;;;;4.14;100.00;95163.13;4980752;28;20452;-76
2023/10/19 01:48:49;;;;;;;25.60;23.10;;;;;;;4.39;100.00;95161.91;4982137;28;20022;-76
2023/10/19 01:51:14;;;;;;;30.35;27.27;;;;;;;4.57;100.00;95160.38;4979911;28;20137;-76
2023/10/19 01:53:43;;;;;;;32.45;28.98;;;;;;;4.39;100.00;95159.34;4975455;28;20172;-76
2023/10/19 01:56:14;;;;;;;27.48;24.80;;;;;;;4.23;100.00;95164.13;4964016;28;20124;-77
2023/10/19 01:58:41;;;;;;;22.55;20.35;;;;;;;4.43;100.00;95168.41;4987564;28;20026;-76
2023/10/19 02:03:42;;;;;;;33.40;28.48;;;;;;;4.38;100.00;95170.53;4981499;28;20042;-76
2023/10/19 02:06:17;;;;;;;42.53;36.60;;;;;;;4.83;100.00;95181.25;4983527;28;20054;-76
2023/10/19 02:09:00;;;;;;;39.40;32.45;;;;;;;4.70;100.00;95196.88;4979494;28;20041;-76
2023/10/19 02:11:27;;;;;;;32.55;29.17;;;;;;;4.58;100.00;95200.47;4964037;28;20521;-76
2023/10/19 02:13:59;;;;;;;34.10;30.10;;;;;;;4.52;100.00;95192.47;4980107;28;20108;-76
2023/10/19 02:16:28;;;;;;;34.42;30.70;;;;;;;4.36;100.00;95189.56;4962776;28;20758;-76
2023/10/19 02:18:53;;;;;;;41.88;37.33;;;;;;;4.39;100.00;95197.81;4980143;28;20030;-76
2023/10/19 02:21:22;;;;;;;32.63;29.13;;;;;;;4.47;100.00;95197.16;4980257;28;20101;-76
2023/10/19 02:23:50;;;;;;;30.73;27.33;;;;;;;4.60;100.00;95190.88;4979932;28;20068;-76
2023/10/19 02:26:30;;;;;;;35.53;31.13;;;;;;;4.28;100.00;95191.94;4963010;28;20132;-76
2023/10/19 02:28:56;;;;;;;37.45;32.90;;;;;;;4.56;100.00;95201.53;4979550;28;20023;-77
2023/10/19 02:31:23;;;;;;;36.10;31.30;;;;;;;4.34;100.00;95209.38;4979751;28;20041;-76
2023/10/19 02:33:52;;;;;;;33.63;29.58;;;;;;;4.44;100.00;95203.34;4978767;28;20084;-76
2023/10/19 02:36:19;;;;;;;35.45;31.45;;;;;;;4.45;100.00;95215.25;4979218;28;20522;-75
2023/10/19 02:38:51;;;;;;;35.53;30.33;;;;;;;4.47;100.00;95220.22;4978780;28;20022;-76
2023/10/19 02:41:17;;;;;;;37.35;32.47;;;;;;;4.44;100.00;95215.34;4980705;28;20058;-76
2023/10/19 02:44:00;;;;;;;40.97;33.95;;;;;;;4.51;100.00;95214.72;4980569;28;20050;-77
2023/10/19 02:46:26;;;;;;;33.92;30.15;;;;;;;4.35;100.00;95227.19;4978266;28;20792;-76
2023/10/19 02:48:52;;;;;;;39.70;33.33;;;;;;;4.40;100.00;95217.38;4979262;28;20018;-75
2023/10/19 02:51:19;;;;;;;36.33;31.58;;;;;;;4.25;100.00;95221.19;4978818;28;20069;-76
2023/10/19 02:53:44;;;;;;;32.92;29.35;;;;;;;4.35;100.00;95216.94;4963412;28;20841;-76
2023/10/19 02:56:19;;;;;;;31.60;28.30;;;;;;;4.39;100.00;95217.50;4978328;28;20471;-76
2023/10/19 02:58:48;;;;;;;37.70;31.25;;;;;;;4.29;100.00;95214.88;4978934;28;20022;-76
2023/10/19 03:01:22;;;;;;;36.50;29.63;;;;;;;4.24;100.00;95211.88;4972895;28;20403;-76
2023/10/19 03:03:50;;;;;;;36.38;30.00;;;;;;;4.14;100.00;95201.56;4978754;28;20117;-76
2023/10/19 03:06:20;;;;;;;34.33;30.05;;;;;;;4.00;100.00;95199.34;4957433;28;20121;-76
2023/10/19 03:08:47;;;;;;;31.85;27.45;;;;;;;4.08;100.00;95203.81;4948637;28;20038;-76
2023/10/19 03:11:14;;;;;;;30.83;26.52;;;;;;;4.11;100.00;95209.50;4980780;28;20026;-76
2023/10/19 03:13:41;;;;;;;31.90;28.33;;;;;;;4.10;100.00;95201.97;4978380;28;20496;-76
2023/10/19 03:16:09;;;;;;;35.95;31.58;;;;;;;4.09;100.00;95206.25;4978222;28;20129;-76
2023/10/19 03:18:35;;;;;;;38.10;33.72;;;;;;;4.16;100.00;95204.00;4962021;28;20065;-76
2023/10/19 03:21:02;;;;;;;34.53;30.77;;;;;;;4.22;100.00;95199.19;4979785;28;20030;-76
2023/10/19 03:23:28;;;;;;;181.93;91.85;;;;;;;4.21;100.00;95201.88;4978694;28;20558;-76
2023/10/19 03:28:41;;;;;;;116.93;69.72;;;;;;;4.30;100.00;95198.56;4979890;28;20045;-76
2023/10/19 03:31:07;;;;;;;78.35;49.08;;;;;;;4.24;100.00;95202.44;4978183;28;20030;-76
2023/10/19 03:33:36;;;;;;;53.95;38.40;;;;;;;4.01;100.00;95202.72;4959716;28;20485;-75
2023/10/19 03:36:03;;;;;;;77.60;55.10;;;;;;;4.13;100.00;95204.25;4967933;28;20088;-77
2023/10/19 03:38:31;;;;;;;45.97;36.50;;;;;;;4.13;100.00;95196.56;4962404;28;20089;-76
2023/10/19 03:41:02;;;;;;;41.50;33.65;;;;;;;3.97;100.00;95196.19;4978409;28;20467;-76
2023/10/19 03:43:27;;;;;;;58.33;45.35;;;;;;;4.07;100.00;95209.91;4979257;28;20252;-78
2023/10/19 03:45:54;;;;;;;43.25;38.55;;;;;;;4.04;100.00;95200.72;4978676;28;20455;-76
2023/10/19 03:48:26;;;;;;;46.35;40.50;;;;;;;4.06;100.00;95201.41;4977671;28;20050;-76
2023/10/19 03:50:54;;;;;;;39.85;34.20;;;;;;;4.06;100.00;95200.56;4962724;28;20038;-75
2023/10/19 03:53:21;;;;;;;39.38;35.28;;;;;;;4.01;100.00;95193.28;4962547;28;20042;-76
2023/10/19 03:55:47;;;;;;;42.17;35.10;;;;;;;3.91;100.00;95176.22;4961948;28;20042;-76
2023/10/19 03:58:12;;;;;;;41.47;33.17;;;;;;;3.93;100.00;95182.00;4978271;28;20452;-77
2023/10/19 04:00:38;;;;;;;33.42;29.20;;;;;;;3.79;100.00;95172.88;4978161;28;20081;-76
2023/10/19 04:03:05;;;;;;;37.05;30.35;;;;;;;3.71;100.00;95170.16;4978545;28;20034;-76
2023/10/19 04:05:38;;;;;;;30.83;27.55;;;;;;;3.81;100.00;95159.97;4978083;28;20125;-76
2023/10/19 04:08:13;;;;;;;30.30;27.23;;;;;;;3.89;100.00;95166.06;4972089;28;20875;-76
2023/10/19 04:10:44;;;;;;;36.20;30.27;;;;;;;3.95;100.00;95159.66;4978502;28;20655;-76
2023/10/19 04:13:10;;;;;;;35.88;30.48;;;;;;;3.89;100.00;95157.56;4962253;28;20552;-76
2023/10/19 04:15:36;;;;;;;33.05;29.48;;;;;;;3.72;100.00;95152.06;4973015;28;20050;-76
2023/10/19 04:18:08;;;;;;;28.67;25.58;;;;;;;3.80;100.00;95145.53;4977630;28;20049;-75
2023/10/19 04:23:18;;;;;;;37.60;30.42;;;;;;;3.77;100.00;95145.78;4978200;28;20129;-76
2023/10/19 04:25:45;;;;;;;33.50;28.88;;;;;;;3.79;100.00;95149.84;4977866;28;20125;-76
2023/10/19 04:28:13;;;;;;;29.35;26.35;;;;;;;3.76;100.00;95144.97;4977847;28;20026;-76
2023/10/19 04:30:39;;;;;;;39.08;25.85;;;;;;;3.87;100.00;95151.78;4961384;28;20057;-76
2023/10/19 04:33:08;;;;;;;34.05;27.65;;;;;;;3.88;100.00;95143.97;4962030;28;20085;-76
2023/10/19 04:35:35;;;;;;;31.52;27.48;;;;;;;3.94;100.00;95146.03;4978821;28;20143;-76
2023/10/19 04:38:01;;;;;;;33.22;29.05;;;;;;;3.68;100.00;95147.34;4965910;28;21118;-76
2023/10/19 04:40:26;;;;;;;30.77;26.88;;;;;;;3.90;100.00;95149.78;4980512;28;20208;-75
2023/10/19 04:42:53;;;;;;;35.75;27.38;;;;;;;3.96;100.00;95153.59;4965132;28;21941;-76
2023/10/19 04:45:19;;;;;;;40.13;32.78;;;;;;;3.99;100.00;95149.03;4965212;28;20134;-76
2023/10/19 04:47:45;;;;;;;68.28;44.58;;;;;;;4.10;100.00;95155.84;4981077;28;20101;-75
2023/10/19 04:50:12;;;;;;;93.00;57.28;;;;;;;4.15;100.00;95154.50;4965063;28;20041;-76
2023/10/19 04:52:39;;;;;;;86.28;51.88;;;;;;;4.10;100.00;95156.66;4964755;28;20026;-76
2023/10/19 04:55:05;;;;;;;121.22;71.00;;;;;;;4.18;100.00;95161.13;4981893;28;20027;-76
2023/10/19 04:57:30;;;;;;;164.93;81.40;;;;;;;4.17;100.00;95168.00;4982354;28;20069;-75
2023/10/19 04:59:56;;;;;;;118.20;67.03;;;;;;;4.13;100.00;95165.84;4965133;28;20491;-75
2023/10/19 05:02:23;;;;;;;104.68;59.15;;;;;;;4.09;100.00;95155.03;4980225;28;20033;-75
2023/10/19 05:04:49;;;;;;;136.02;76.25;;;;;;;4.26;100.00;95161.31;4982135;28;20129;-76
2023/10/19 05:07:16;;;;;;;65.82;47.03;;;;;;;4.08;100.00;95155.94;4964466;28;20042;-76
2023/10/19 05:09:43;;;;;;;46.53;34.63;;;;;;;4.30;100.00;95157.56;4980264;28;20038;-75
2023/10/19 05:12:09;;;;;;;41.10;33.90;;;;;;;4.15;100.00;95156.25;4980613;28;20038;-76
2023/10/19 05:14:39;;;;;;;43.55;35.65;;;;;;;4.37;100.00;95161.22;4980803;28;20117;-75
2023/10/19 05:17:09;;;;;;;26.80;24.05;;;;;;;4.19;100.00;95153.31;4979598;28;20087;-75
2023/10/19 05:19:35;;;;;;;27.10;23.40;;;;;;;4.44;100.00;95149.53;4972416;28;20141;-76
2023/10/19 05:22:02;;;;;;;32.60;26.88;;;;;;;4.82;100.00;95148.06;4956359;28;20073;-75
2023/10/19 05:24:28;;;;;;;36.60;28.58;;;;;;;4.79;100.00;95134.53;4981098;28;20037;-76
2023/10/19 05:26:54;;;;;;;37.05;29.85;;;;;;;4.64;100.00;95133.28;4978488;28;20488;-76
2023/10/19 05:29:20;;;;;;;32.53;26.35;;;;;;;5.33;100.00;95128.09;4978784;28;20034;-76
2023/10/19 05:31:46;;;;;;;27.92;25.02;;;;;;;5.63;100.00;95110.00;4961264;28;20508;-75
2023/10/19 05:34:11;;;;;;;26.58;23.98;;;;;;;5.77;100.00;95091.59;4979065;28;20037;-76
2023/10/19 05:36:37;;;;;;;29.45;23.52;;;;;;;5.87;100.00;95073.63;4977655;28;20485;-75
2023/10/19 05:39:05;;;;;;;25.08;22.52;;;;;;;5.67;100.00;95074.56;4980544;28;20022;-75
2023/10/19 05:41:31;;;;;;;31.38;26.60;;;;;;;5.70;100.00;95075.13;4977532;28;20038;-76
2023/10/19 05:43:57;;;;;;;28.52;25.65;;;;;;;5.80;100.00;95078.47;4979844;28;20042;-75
2023/10/19 05:46:24;;;;;;;30.75;27.45;;;;;;;5.78;100.00;95075.22;4978347;28;20035;-75
2023/10/19 05:48:50;;;;;;;28.15;25.02;;;;;;;6.40;100.00;95086.69;4977439;28;20404;-76
2023/10/19 05:51:17;;;;;;;25.60;23.13;;;;;;;6.73;100.00;95075.84;4979641;28;20030;-75
2023/10/19 05:53:44;;;;;;;22.70;20.17;;;;;;;6.55;100.00;95043.31;4979069;28;20027;-75
2023/10/19 05:56:11;;;;;;;24.73;22.30;;;;;;;6.92;100.00;95069.75;4962315;28;20038;-76
2023/10/19 05:58:36;;;;;;;24.23;21.52;;;;;;;7.17;100.00;95068.22;4978776;28;20034;-76
2023/10/19 06:01:02;;;;;;;21.83;19.63;;;;;;;7.22;100.00;95073.75;4979320;28;20033;-75
2023/10/19 06:03:27;;;;;;;34.67;30.90;;;;;;;7.53;100.00;95082.72;4977708;28;20030;-75
2023/10/19 06:05:56;;;;;;;26.52;23.20;;;;;;;7.89;100.00;95070.56;4961522;28;20126;-76
2023/10/19 06:08:22;;;;;;;28.73;25.75;;;;;;;8.25;100.00;95066.13;4978170;28;20046;-75
2023/10/19 06:10:52;;;;;;;26.38;23.77;;;;;;;8.30;100.00;95056.16;4976874;28;20507;-76
2023/10/19 06:13:17;;;;;;;24.33;22.02;;;;;;;8.61;100.00;95052.09;4977848;28;20062;-76
2023/10/19 06:15:44;;;;;;;25.67;23.08;;;;;;;8.95;100.00;95059.78;4977427;28;20051;-75
2023/10/19 06:18:10;;;;;;;26.77;24.25;;;;;;;9.05;100.00;95059.66;4977498;28;20128;-75
2023/10/19 06:20:36;;;;;;;26.17;23.60;;;;;;;9.46;100.00;95054.38;4977616;28;20035;-76
2023/10/19 06:23:05;;;;;;;25.50;23.05;;;;;;;10.09;100.00;95038.13;4978461;28;20030;-75
2023/10/19 06:25:32;;;;;;;24.20;21.90;;;;;;;10.24;100.00;95017.59;4951359;28;20061;-76
2023/10/19 06:27:57;;;;;;;23.23;20.83;;;;;;;10.48;100.00;95001.94;4979047;28;20062;-76
2023/10/19 06:30:23;;;;;;;22.55;20.45;;;;;;;11.87;100.00;94957.53;4961836;28;20133;-76
2023/10/19 06:33:00;;;;;;;17.50;16.00;;;;;;;13.16;100.00;94840.66;4976667;28;20088;-75
2023/10/19 06:35:26;;;;;;;15.20;13.90;;;;;;;12.19;100.00;94786.78;4978941;28;20173;-75
2023/10/19 06:37:53;;;;;;;18.13;16.52;;;;;;;12.67;100.00;94840.59;4961787;28;20405;-77
2023/10/19 06:40:18;;;;;;;18.67;17.08;;;;;;;12.10;100.00;94841.41;4964145;28;20120;-78
2023/10/19 06:42:47;;;;;;;15.75;14.45;;;;;;;13.16;100.00;94835.44;4958866;28;20340;-75
2023/10/19 06:45:16;;;;;;;15.95;14.65;;;;;;;13.95;100.00;94800.22;4970318;28;20031;-77
2023/10/19 06:47:46;;;;;;;15.80;14.35;;;;;;;13.29;100.00;94793.13;4977037;28;20474;-76
2023/10/19 06:50:15;;;;;;;15.02;13.63;;;;;;;13.73;100.00;94809.16;4960757;28;20030;-76
2023/10/19 06:52:41;;;;;;;13.70;12.45;;;;;;;14.30;100.00;94802.72;4977365;28;20518;-77
2023/10/19 06:55:13;;;;;;;15.02;13.73;;;;;;;14.83;100.00;94774.97;4976829;28;20030;-76
2023/10/19 06:57:40;;;;;;;14.48;13.43;;;;;;;12.95;100.00;94799.03;4963738;28;20117;-77
2023/10/19 07:00:14;;;;;;;14.68;13.57;;;;;;;13.74;100.00;94789.94;4962209;28;20440;-77
2023/10/19 07:02:43;;;;;;;15.15;13.95;;;;;;;14.13;100.00;94782.25;4961372;28;20038;-75
2023/10/19 07:05:13;;;;;;;15.27;13.80;;;;;;;13.80;100.00;94783.97;4977147;28;20045;-76
2023/10/19 07:07:42;;;;;;;13.50;12.50;;;;;;;14.78;100.00;94773.75;4976319;28;20038;-75
2023/10/19 07:10:09;;;;;;;;;;;;;;;14.83;100.00;94780.19;4978405;28;20026;-78
2023/10/19 07:12:39;;;;;;;13.85;12.75;;;;;;;13.43;100.00;94790.38;4978321;28;19962;-77
2023/10/19 07:15:07;;;;;;;14.75;12.88;;;;;;;13.11;100.00;94788.38;4979664;28;20727;-75
2023/10/19 07:17:37;;;;;;;14.13;13.00;;;;;;;14.35;100.00;94789.97;4979535;28;20046;-76
2023/10/19 07:20:05;;;;;;;12.73;11.77;;;;;;;14.61;100.00;94785.56;4969121;28;20035;-76
2023/10/19 07:22:32;;;;;;;13.73;12.37;;;;;;;13.74;100.00;94780.31;4964509;28;20108;-76
2023/10/19 07:24:57;;;;;;;13.25;12.23;;;;;;;14.42;100.00;94782.94;4976681;28;20846;-77
2023/10/19 07:27:25;;;;;;;12.35;11.43;;;;;;;13.97;100.00;94772.19;4976972;28;20046;-76
2023/10/19 07:29:50;;;;;;;12.32;11.38;;;;;;;14.65;100.00;94776.34;4975218;28;20031;-78
2023/10/19 07:32:16;;;;;;;12.45;11.35;;;;;;;14.20;100.00;94767.44;4978042;28;20040;-76
2023/10/19 07:34:44;;;;;;;11.75;10.80;;;;;;;14.44;100.00;94760.91;4973275;28;20029;-76
2023/10/19 07:37:14;;;;;;;10.73;9.93;;;;;;;15.99;100.00;94735.72;4981098;28;20523;-86
2023/10/19 07:39:52;;;;;;;10.18;9.18;;;;;;;18.08;99.90;94729.59;4977770;28;20031;-82
2023/10/19 07:42:18;;;;;;;9.13;8.43;;;;;;;19.81;74.36;94728.16;4977590;28;20145;-76
2023/10/19 07:44:44;;;;;;;9.02;8.32;;;;;;;20.26;71.44;94724.81;4960791;28;20455;-78
2023/10/19 07:47:12;;;;;;;9.48;8.43;;;;;;;17.66;86.22;94731.34;4975482;28;20026;-76
2023/10/19 07:49:41;;;;;;;8.98;8.10;;;;;;;15.36;100.00;94726.09;4976922;28;20027;-76
2023/10/19 07:52:07;;;;;;;8.48;7.63;;;;;;;17.36;91.75;94725.22;4977457;28;20967;-83
2023/10/19 07:54:35;;;;;;;7.50;7.10;;;;;;;17.98;82.73;94731.94;4960293;28;20408;-80
2023/10/19 07:57:05;;;;;;;7.97;7.45;;;;;;;19.56;76.43;94722.41;4976310;28;20085;-77
2023/10/19 07:59:34;;;;;;;7.50;7.00;;;;;;;20.79;73.21;94721.78;4976313;28;20125;-77
2023/10/19 08:02:02;;;;;;;;;;;;;;;23.16;58.90;94718.50;4976846;28;20042;-76
2023/10/19 08:04:28;;;;;;;7.00;6.50;;;;;;;17.78;80.37;94729.59;4975823;28;19929;-79
2023/10/19 08:06:55;;;;;;;6.22;5.72;;;;;;;20.14;69.08;94722.22;4975627;28;20027;-75
2023/10/19 08:09:22;;;;;;;6.47;5.97;;;;;;;20.38;64.70;94726.38;4976200;28;20026;-82
2023/10/19 08:11:49;;;;;;;5.80;5.30;;;;;;;19.91;67.39;94722.28;4979295;28;20019;-78
2023/10/19 08:14:14;;;;;;;6.72;6.32;;;;;;;17.33;86.56;94736.13;4960163;28;20031;-76
2023/10/19 08:16:41;;;;;;;6.85;6.35;;;;;;;15.60;99.85;94736.72;4974780;28;20464;-76
2023/10/19 08:19:07;;;;;;;7.38;6.88;;;;;;;14.76;100.00;94741.06;4980396;28;20507;-76
2023/10/19 08:21:34;;;;;;;7.47;6.75;;;;;;;17.59;93.53;94729.84;4981256;28;20073;-76
2023/10/19 08:24:04;;;;;;;6.30;5.70;;;;;;;16.22;91.76;94716.91;4980136;28;20026;-87
2023/10/19 08:26:30;;;;;;;6.93;6.32;;;;;;;15.32;100.00;94721.31;4988956;28;20109;-78
2023/10/19 08:28:55;;;;;;;6.95;6.45;;;;;;;18.17;84.91;94735.34;4981179;28;20484;-79
2023/10/19 08:31:21;;;;;;;6.63;5.82;;;;;;;18.83;73.29;94717.63;4981182;28;20384;-77
2023/10/19 08:33:47;;;;;;;6.45;6.05;;;;;;;18.03;80.17;94732.09;4963322;28;20062;-80
2023/10/19 08:36:19;;;;;;;6.55;5.95;;;;;;;17.43;85.58;94743.47;4963414;28;20073;-77
2023/10/19 08:38:45;;;;;;;5.85;5.30;;;;;;;19.10;75.81;94744.25;4974317;28;20026;-77
2023/10/19 08:41:10;;;;;;;6.30;5.80;;;;;;;17.88;81.94;94752.66;4973721;28;20029;-81
2023/10/19 08:43:39;;;;;;;7.00;6.50;;;;;;;20.25;71.93;94745.06;4979273;28;20555;-78
2023/10/19 08:46:05;;;;;;;7.18;6.57;;;;;;;21.08;65.48;94740.94;4980812;28;20588;-85
2023/10/19 08:48:34;;;;;;;7.70;7.00;;;;;;;20.25;69.02;94745.06;4962206;28;20134;-82
2023/10/19 08:51:02;;;;;;;6.63;6.03;;;;;;;19.64;70.97;94744.91;4979759;28;20044;-76
2023/10/19 08:53:28;;;;;;;6.13;5.45;;;;;;;19.87;69.69;94744.84;4979498;28;20062;-77
2023/10/19 08:55:55;;;;;;;6.60;6.20;;;;;;;20.49;68.85;94738.66;4979241;28;20030;-77
2023/10/19 08:58:22;;;;;;;7.67;7.17;;;;;;;19.15;73.11;94741.72;4962693;28;20048;-79
2023/10/19 09:00:53;;;;;;;7.40;6.70;;;;;;;19.04;75.41;94739.09;4979403;28;20049;-78
2023/10/19 09:03:19;;;;;;;8.43;6.90;;;;;;;18.09;80.24;94746.13;4954401;28;20450;-79
2023/10/19 09:05:48;;;;;;;7.45;6.90;;;;;;;19.49;74.76;94745.38;4980505;28;20042;-77
2023/10/19 09:08:17;;;;;;;7.85;7.35;;;;;;;19.97;72.31;94742.44;4978278;28;20033;-78
2023/10/19 09:10:48;;;;;;;8.23;7.50;;;;;;;19.20;75.81;94744.44;4979574;28;20023;-81
2023/10/19 09:13:18;;;;;;;7.78;7.25;;;;;;;18.07;82.22;94749.00;4962672;28;20550;-79
2023/10/19 09:15:43;;;;;;;7.72;7.18;;;;;;;17.98;84.05;94755.53;4981243;28;20104;-76
2023/10/19 09:18:14;;;;;;;8.05;7.45;;;;;;;18.12;80.81;94745.69;4945432;28;20038;-81
2023/10/19 09:20:41;;;;;;;8.02;7.35;;;;;;;18.07;83.76;94754.22;4979168;28;20041;-83
2023/10/19 09:23:07;;;;;;;7.57;6.90;;;;;;;18.00;82.30;94747.47;4977674;28;20074;-80
2023/10/19 09:25:34;;;;;;;6.97;6.43;;;;;;;17.60;85.87;94749.75;4980656;28;20117;-79
2023/10/19 09:28:02;;;;;;;7.80;7.18;;;;;;;17.28;88.55;94733.34;4978333;28;20030;-78
2023/10/19 09:30:30;;;;;;;7.43;6.93;;;;;;;17.13;88.70;94730.28;4978255;28;20031;-88
2023/10/19 09:32:57;;;;;;;8.02;7.45;;;;;;;16.94;91.56;94729.47;4979349;28;20113;-88
2023/10/19 09:35:27;;;;;;;7.38;6.70;;;;;;;16.47;93.16;94740.47;4978192;28;20044;-78
2023/10/19 09:37:56;;;;;;;7.78;7.18;;;;;;;16.49;93.59;94727.97;4963067;28;20548;-78
2023/10/19 09:40:22;;;;;;;6.75;6.25;;;;;;;17.02;91.38;94720.50;4977504;28;20618;-78
2023/10/19 09:42:52;;;;;;;6.60;6.03;;;;;;;17.17;89.91;94724.41;4962320;28;20120;-77
2023/10/19 09:45:19;;;;;;;7.05;6.38;;;;;;;17.69;85.79;94723.03;4985304;28;20083;-77
2023/10/19 09:47:49;;;;;;;6.60;6.20;;;;;;;18.14;81.73;94720.84;4978543;28;20026;-79
2023/10/19 09:50:15;;;;;;;5.38;4.97;;;;;;;18.49;81.41;94722.78;4972212;28;20153;-78
2023/10/19 09:52:41;;;;;;;5.32;4.93;;;;;;;17.79;77.69;94714.66;4979677;28;20053;-76
2023/10/19 09:55:23;;;;;;;6.10;5.38;;;;;;;17.92;81.80;94708.47;4978807;28;20018;-78
2023/10/19 09:57:57;;;;;;;4.60;4.30;;;;;;;18.54;76.69;94696.69;4977751;28;20026;-77
2023/10/19 10:00:25;;;;;;;6.00;4.53;;;;;;;19.08;74.77;94683.25;4978954;28;20069;-80
2023/10/19 10:02:51;;;;;;;5.00;4.50;;;;;;;17.65;79.56;94680.00;4978248;28;20469;-85
2023/10/19 10:05:44;;;;;;;4.97;4.55;;;;;;;17.70;79.13;94668.81;4977885;28;20105;-80
2023/10/19 10:08:19;;;;;;;4.75;4.35;;;;;;;18.10;76.39;94662.03;4979385;28;20142;-86
2023/10/19 10:10:49;;;;;;;5.18;4.78;;;;;;;18.29;77.50;94658.31;4978011;28;20048;-82
2023/10/19 10:13:23;;;;;;;5.80;5.30;;;;;;;18.47;75.93;94654.78;4979346;28;20056;-80
2023/10/19 10:15:49;;;;;;;5.90;5.50;;;;;;;17.83;79.07;94639.84;4980443;28;20030;-77
2023/10/19 10:18:15;;;;;;;5.60;5.20;;;;;;;19.29;74.03;94621.47;4978962;28;20037;-79
2023/10/19 10:20:41;;;;;;;5.13;4.72;;;;;;;19.16;72.14;94617.28;4979651;28;20397;-80
2023/10/19 10:23:25;;;;;;;5.13;4.82;;;;;;;19.23;72.62;94625.78;4978930;28;20512;-78
2023/10/19 10:25:53;;;;;;;5.57;5.07;;;;;;;18.50;73.97;94615.03;4964878;28;20396;-76
2023/10/19 10:28:19;;;;;;;5.43;5.03;;;;;;;18.42;74.69;94616.16;4963062;28;20129;-77
2023/10/19 10:31:13;;;;;;;5.40;5.00;;;;;;;18.55;75.84;94604.66;4979074;28;20030;-80
2023/10/19 10:33:39;;;;;;;5.03;4.63;;;;;;;18.43;73.46;94595.94;4963464;28;20038;-81
2023/10/19 10:36:06;;;;;;;4.90;4.53;;;;;;;18.24;75.57;94602.31;4978987;28;20035;-83
2023/10/19 10:38:37;;;;;;;4.57;4.28;;;;;;;17.89;78.18;94597.81;4962673;28;20038;-84
2023/10/19 10:41:03;;;;;;;5.15;4.75;;;;;;;19.09;73.02;94592.16;4979481;28;20212;-82
2023/10/19 10:43:29;;;;;;;4.75;4.35;;;;;;;19.45;70.50;94591.88;4979070;28;20045;-86
2023/10/19 10:46:07;;;;;;;4.88;4.35;;;;;;;18.64;70.42;94597.25;4980050;28;20421;-89
2023/10/19 10:48:33;;;;;;;4.18;3.88;;;;;;;18.21;74.14;94597.53;4962938;28;20101;-87
2023/10/19 10:50:59;;;;;;;4.80;4.50;;;;;;;18.22;75.46;94586.03;4964296;28;20062;-86
2023/10/19 10:53:27;;;;;;;7.53;5.53;;;;;;;18.26;76.17;94574.88;4952552;28;20177;-81
2023/10/19 10:56:00;;;;;;;4.30;4.00;;;;;;;18.35;75.35;94583.19;4963363;28;20419;-86
2023/10/19 10:58:25;;;;;;;4.63;4.22;;;;;;;18.68;76.39;94586.06;4973896;28;20188;-83
2023/10/19 11:00:54;;;;;;;4.88;4.50;;;;;;;18.46;76.35;94573.72;4959895;28;20041;-80
2023/10/19 11:03:21;;;;;;;;;;;;;;;18.80;75.08;94568.47;4960353;28;20034;-81
2023/10/19 11:05:47;;;;;;;6.15;4.53;;;;;;;18.44;75.84;94561.63;4969254;28;20330;-83
2023/10/19 11:08:15;;;;;;;4.97;4.60;;;;;;;18.51;78.03;94560.75;4962446;28;20025;-82
2023/10/19 11:10:45;;;;;;;4.50;4.20;;;;;;;18.41;76.27;94558.66;4963199;28;20027;-86
2023/10/19 11:13:12;;;;;;;4.82;4.50;;;;;;;17.76;81.18;94557.91;4967057;28;20096;-80
2023/10/19 11:15:38;;;;;;;5.60;5.10;;;;;;;17.99;82.51;94544.84;4980005;28;20041;-84
2023/10/19 11:18:07;;;;;;;4.72;4.25;;;;;;;17.87;82.16;94533.56;4962386;28;20030;-85
2023/10/19 11:20:33;;;;;;;5.00;4.47;;;;;;;18.82;79.00;94536.75;4962658;28;20038;-85
2023/10/19 11:23:02;;;;;;;5.10;4.63;;;;;;;18.98;78.00;94528.16;4961913;28;20034;-85
2023/10/19 11:25:29;;;;;;;4.85;4.45;;;;;;;18.97;76.45;94534.44;4979815;28;20034;-92
2023/10/19 11:27:59;;;;;;;5.00;4.70;;;;;;;19.25;76.64;94523.16;4978105;28;20481;-83
2023/10/19 11:30:31;;;;;;;4.75;4.20;;;;;;;18.97;78.54;94512.66;4962886;28;20026;-82
2023/10/19 11:32:57;;;;;;;5.68;4.10;;;;;;;19.30;76.67;94508.28;4961880;28;20030;-79
2023/10/19 11:35:29;;;;;;;4.70;4.40;;;;;;;19.64;75.95;94505.75;4962261;28;20618;-83
2023/10/19 11:37:56;;;;;;;4.80;4.35;;;;;;;19.38;74.47;94507.13;4978386;28;20026;-84
2023/10/19 11:40:22;;;;;;;5.55;5.05;;;;;;;19.05;75.30;94505.19;4962384;28;20141;-89
2023/10/19 11:42:52;;;;;;;4.78;4.47;;;;;;;19.06;75.28;94496.28;4978594;28;20050;-82
2023/10/19 11:45:18;;;;;;;4.15;3.75;;;;;;;18.80;76.59;94502.06;4962391;28;20074;-83
2023/10/19 11:47:44;;;;;;;4.25;3.95;;;;;;;19.37;75.18;94497.63;4966646;28;20045;-86
2023/10/19 11:50:14;;;;;;;5.82;4.20;;;;;;;19.36;75.48;94496.81;4982762;28;20101;-81
2023/10/19 11:52:40;;;;;;;9.60;5.10;;;;;;;19.12;75.74;94487.47;4967852;28;20057;-90
2023/10/19 11:55:05;;;;;;;4.60;4.30;;;;;;;19.44;74.33;94483.34;4960180;28;20548;-83